Time;durP1;ratioP1;P1;durP2;ratioP2;P2;SDS_P1;SDS_P2;PMS_P1;PMS_P2;Temp;Humidity;BMP_temperature;BMP_pressure;BME280_temperature;BME280_humidity;BME280_pressure;Samples;Min_cycle;Max_cycle;Signal;HPM_P1;HPM_P2
2022/10/17 05:17:00;;;;;;;;;6.25;6.25;;;;;18.93;69.39;101521.63;2553603;23;45366;-86
2022/10/17 05:18:10;;;;;;;;;6.75;6.00;;;;;18.95;69.75;101524.19;2381541;28;46022;-86
2022/10/17 05:19:21;;;;;;;;;7.25;7.25;;;;;18.96;69.36;101525.91;2373586;28;45493;-86
2022/10/17 05:20:32;;;;;;;;;7.75;7.75;;;;;18.97;69.43;101527.63;2376038;28;48217;-86
2022/10/17 05:21:42;;;;;;;;;7.25;7.00;;;;;18.97;69.76;101530.28;2372801;28;45269;-87
2022/10/17 05:22:53;;;;;;;;;8.50;7.00;;;;;18.99;69.47;101531.06;2376455;28;46484;-87
2022/10/17 05:24:09;;;;;;;;;9.00;7.25;;;;;18.97;69.67;101522.28;2383860;28;45564;-87
2022/10/17 05:25:19;;;;;;;;;6.00;5.50;;;;;18.98;70.00;101521.38;2376857;28;47304;-87
2022/10/17 05:26:30;;;;;;;;;6.50;6.25;;;;;18.99;69.59;101523.06;2376777;28;45235;-86
2022/10/17 05:27:40;;;;;;;;;9.00;8.00;;;;;19.00;69.47;101523.00;2373778;28;47959;-87
2022/10/17 05:28:51;;;;;;;;;9.00;8.00;;;;;19.01;69.41;101524.69;2376517;28;44675;-87
2022/10/17 05:30:01;;;;;;;;;8.00;7.00;;;;;19.03;69.35;101524.63;2375546;28;46658;-86
2022/10/17 05:31:13;;;;;;;;;7.25;6.50;;;;;19.04;69.58;101530.81;2381769;28;45391;-87
2022/10/17 05:32:23;;;;;;;;;7.25;6.00;;;;;19.03;69.72;101524.63;2382717;28;47963;-87
2022/10/17 05:33:34;;;;;;;;;6.00;6.00;;;;;19.05;69.73;101525.41;2376226;28;45306;-87
2022/10/17 05:34:44;;;;;;;;;8.75;8.00;;;;;19.05;69.42;101527.19;2385868;28;45432;-87
2022/10/17 05:35:55;;;;;;;;;7.75;6.75;;;;;19.06;69.47;101535.09;2392971;28;45399;-87
2022/10/17 05:37:05;;;;;;;;;9.50;8.00;;;;;19.05;69.59;101540.50;2382980;28;48348;-84
2022/10/17 05:38:15;;;;;;;;;7.25;6.75;;;;;19.03;69.71;101532.63;2381204;28;45492;-87
2022/10/17 05:39:26;;;;;;;;;7.50;7.00;;;;;19.05;69.83;101536.06;2392973;28;46273;-87
2022/10/17 05:40:38;;;;;;;;;7.50;7.50;;;;;19.06;69.42;101531.59;2393167;28;45253;-87
2022/10/17 05:41:50;;;;;;;;;10.00;9.00;;;;;19.06;69.67;101531.59;2382930;28;47042;-87
2022/10/17 05:43:00;;;;;;;;;8.00;6.25;;;;;19.05;69.98;101528.06;2384125;28;45265;-87
2022/10/17 05:44:11;;;;;;;;;8.00;8.00;;;;;19.05;69.35;101538.72;2382440;28;46897;-87
2022/10/17 05:45:21;;;;;;;;;9.00;7.75;;;;;19.04;69.78;101536.97;2375812;28;45313;-86
2022/10/17 05:46:32;;;;;;;;;5.50;4.25;;;;;19.03;69.96;101542.41;2385448;28;46278;-86
2022/10/17 05:47:42;;;;;;;;;6.25;4.75;;;;;19.02;69.62;101541.53;2394355;28;44593;-87
2022/10/17 05:48:54;;;;;;;;;7.25;7.25;;;;;19.02;69.61;101538.88;2384679;28;47926;-87
2022/10/17 05:50:05;;;;;;;;;6.75;6.75;;;;;19.03;69.72;101540.63;2386667;28;45462;-87
2022/10/17 05:51:15;;;;;;;;;7.00;6.25;;;;;19.02;69.57;101528.22;2392769;28;46403;-87
2022/10/17 05:52:26;;;;;;;;;8.25;8.00;;;;;19.03;69.75;101529.09;2380763;28;45444;-87
2022/10/17 05:53:39;;;;;;;;;8.00;6.00;;;;;19.03;69.75;101523.75;2374952;28;46931;-87
2022/10/17 05:54:50;;;;;;;;;7.75;7.75;;;;;19.04;69.49;101510.34;2372646;28;45288;-88
2022/10/17 05:56:02;;;;;;;;;7.25;6.75;;;;;19.05;69.58;101525.41;2374887;28;46890;-87
2022/10/17 05:57:13;;;;;;;;;5.75;5.75;;;;;19.05;69.59;101516.53;2387402;28;45290;-87
2022/10/17 05:58:23;;;;;;;;;9.75;8.00;;;;;19.05;69.86;101525.41;2391777;28;45814;-87
2022/10/17 05:59:33;;;;;;;;;10.00;7.50;;;;;19.05;69.81;101520.06;2381577;28;44708;-87
2022/10/17 06:00:44;;;;;;;;;7.75;6.50;;;;;19.04;69.84;101518.34;2377586;28;45527;-87
2022/10/17 06:01:54;;;;;;;;;10.00;7.50;;;;;19.05;69.38;101529.84;2392250;28;45333;-88
2022/10/17 06:03:05;;;;;;;;;8.00;6.50;;;;;19.07;69.54;101535.94;2378502;28;47153;-87
2022/10/17 06:04:15;;;;;;;;;10.25;7.00;;;;;19.06;70.13;101529.75;2370083;28;45447;-87
2022/10/17 06:05:26;;;;;;;;;8.75;6.25;;;;;19.06;70.04;101524.44;2379491;28;45411;-87
2022/10/17 06:06:37;;;;;;;;;7.00;6.00;;;;;19.05;70.24;101504.09;2385711;28;46305;-88
2022/10/17 06:07:52;;;;;;;;;8.00;8.00;;;;;19.04;69.71;101513.00;2389505;28;46436;-88
2022/10/17 06:09:03;;;;;;;;;7.75;7.75;;;;;19.04;70.11;101507.69;2391727;28;44770;-87
2022/10/17 06:10:17;;;;;;;;;9.00;8.00;;;;;19.04;69.98;101521.00;2382464;28;47047;-87
2022/10/17 06:11:27;;;;;;;;;10.50;7.00;;;;;19.05;70.40;101520.06;2382755;28;45469;-88
2022/10/17 06:12:38;;;;;;;;;5.75;5.75;;;;;19.04;70.12;101522.81;2386063;28;45502;-88
2022/10/17 06:13:48;;;;;;;;;8.75;7.75;;;;;19.04;70.37;101533.47;2384867;28;44855;-88
2022/10/17 06:14:59;;;;;;;;;7.00;7.00;;;;;19.04;70.16;101531.66;2385631;28;46562;-87
2022/10/17 06:16:09;;;;;;;;;7.25;7.25;;;;;19.03;70.41;101535.28;2385946;28;44633;-87
2022/10/17 06:17:19;;;;;;;;;10.00;6.75;;;;;19.02;70.45;101533.56;2393027;28;45308;-87
2022/10/17 06:18:30;;;;;;;;;7.50;7.50;;;;;19.01;70.00;101534.50;2386882;28;45269;-87
2022/10/17 06:19:40;;;;;;;;;7.75;7.75;;;;;19.00;70.24;101533.66;2379732;28;47030;-87
2022/10/17 06:20:51;;;;;;;;;5.00;5.00;;;;;19.00;70.48;101532.78;2381764;28;45509;-88
2022/10/17 06:22:02;;;;;;;;;8.50;7.25;;;;;18.98;70.25;101529.34;2378636;28;47818;-87
2022/10/17 06:23:12;;;;;;;;;6.00;5.00;;;;;18.98;70.25;101527.56;2381757;28;44795;-86
2022/10/17 06:24:23;;;;;;;;;12.25;11.75;;;;;18.98;70.27;101529.34;2384937;28;46360;-88
2022/10/17 06:25:33;;;;;;;;;7.25;7.25;;;;;18.97;69.68;101536.47;2382632;28;45520;-88
2022/10/17 06:26:43;;;;;;;;;8.25;8.25;;;;;18.97;69.84;101540.94;2386711;28;45397;-87
2022/10/17 06:27:54;;;;;;;;;8.50;8.00;;;;;18.98;69.78;101545.34;2384333;28;44764;-87
2022/10/17 06:29:04;;;;;;;;;7.50;7.00;;;;;18.96;70.46;101564.06;2387079;28;45395;-88
2022/10/17 06:30:14;;;;;;;;;7.50;7.00;;;;;18.97;70.18;101556.91;2394545;28;44735;-88
2022/10/17 06:31:25;;;;;;;;;8.00;7.00;;;;;18.96;70.24;101565.88;2394051;28;45436;-87
2022/10/17 06:32:35;;;;;;;;;7.25;5.00;;;;;18.97;69.87;101572.91;2379533;28;45248;-87
2022/10/17 06:33:45;;;;;;;;;7.50;7.25;;;;;18.97;69.75;101576.44;2380319;28;45560;-88
2022/10/17 06:34:56;;;;;;;;;8.00;7.75;;;;;18.97;70.07;101576.44;2394504;28;44697;-88
2022/10/17 06:36:09;;;;;;;;;8.75;8.75;;;;;18.99;70.29;101584.31;2387591;28;45417;-88
2022/10/17 06:37:19;;;;;;;;;11.00;8.00;;;;;18.97;69.99;101575.56;2375025;28;45247;-88
2022/10/17 06:38:29;;;;;;;;;10.25;8.00;;;;;18.99;70.47;101576.34;2377577;28;46463;-88
2022/10/17 06:39:40;;;;;;;;;8.50;7.00;;;;;18.99;70.31;101584.31;2375043;28;44642;-88
2022/10/17 06:40:52;;;;;;;;;7.00;6.00;;;;;19.00;70.38;101586.06;2374763;28;47779;-88
2022/10/17 06:42:03;;;;;;;;;7.00;7.00;;;;;19.01;69.97;101580.63;2378924;28;45211;-87
2022/10/17 06:43:13;;;;;;;;;7.75;7.25;;;;;19.01;69.81;101593.13;2394229;28;45389;-88
2022/10/17 06:44:27;;;;;;;;;9.50;7.25;;;;;19.01;70.39;101585.97;2392561;28;44704;-88
2022/10/17 06:45:39;;;;;;;;;6.75;6.75;;;;;19.03;69.68;101596.56;2384054;28;47156;-88
2022/10/17 06:46:49;;;;;;;;;7.25;6.25;;;;;19.02;70.00;101594.81;2386956;28;45302;-88
2022/10/17 06:48:01;;;;;;;;;8.50;6.50;;;;;19.04;69.45;101597.41;2394275;28;45289;-88
2022/10/17 06:49:11;;;;;;;;;8.50;8.25;;;;;19.04;69.87;101603.59;2384088;28;44643;-87
2022/10/17 06:50:22;;;;;;;;;6.75;6.50;;;;;19.06;69.61;101603.53;2377292;28;46959;-87
2022/10/17 06:51:36;;;;;;;;;7.50;6.75;;;;;19.06;69.88;101612.34;2384442;28;45212;-87
2022/10/17 06:52:50;;;;;;;;;9.75;7.50;;;;;19.08;70.26;101605.16;2392658;28;45373;-87
2022/10/17 06:54:01;;;;;;;;;11.75;8.00;;;;;19.10;70.10;101613.91;2388971;28;44731;-88
2022/10/17 06:55:12;;;;;;;;;8.75;7.75;;;;;19.10;70.10;101619.25;2374609;28;47542;-87
2022/10/17 06:56:22;;;;;;;;;9.00;8.25;;;;;19.09;69.98;101613.97;2382943;28;45159;-87
2022/10/17 06:57:33;;;;;;;;;7.75;6.00;;;;;19.08;69.98;101621.13;2386926;28;46224;-87
2022/10/17 06:58:45;;;;;;;;;7.00;6.50;;;;;19.11;69.54;101625.44;2392715;28;47071;-87
2022/10/17 06:59:56;;;;;;;;;7.25;7.25;;;;;19.10;69.37;101621.91;2381911;28;47309;-87
2022/10/17 07:01:09;;;;;;;;;5.75;5.75;;;;;19.12;69.35;101616.47;2386951;28;45409;-87
2022/10/17 07:02:20;;;;;;;;;8.50;7.00;;;;;19.14;69.43;101627.91;2393550;28;45223;-87
2022/10/17 07:03:30;;;;;;;;;8.00;8.00;;;;;19.15;69.37;101628.78;2374908;28;44618;-86
2022/10/17 07:04:41;;;;;;;;;7.25;7.00;;;;;19.18;69.89;101625.97;2373998;28;46943;-87
2022/10/17 07:05:52;;;;;;;;;10.00;8.25;;;;;19.18;69.80;101636.63;2384514;28;45214;-87
2022/10/17 07:07:03;;;;;;;;;7.75;7.75;;;;;19.17;69.80;101634.88;2384960;28;45251;-88
2022/10/17 07:08:13;;;;;;;;;10.25;8.00;;;;;19.22;69.88;101643.50;2384894;28;44867;-88
2022/10/17 07:09:24;;;;;;;;;8.50;7.00;;;;;19.22;69.43;101643.50;2375789;28;46198;-88
2022/10/17 07:10:37;;;;;;;;;8.50;6.50;;;;;19.24;69.59;101646.94;2383802;28;45541;-88
2022/10/17 07:11:47;;;;;;;;;5.00;5.00;;;;;19.26;69.40;101653.03;2377457;28;47159;-88
2022/10/17 07:12:58;;;;;;;;;6.25;4.50;;;;;19.26;69.36;101649.53;2381333;28;45446;-88
2022/10/17 07:14:08;;;;;;;;;7.00;7.00;;;;;19.27;69.02;101656.56;2391715;28;45373;-87
2022/10/17 07:15:18;;;;;;;;;1.00;1.00;;;;;19.30;68.71;101665.28;2382537;28;44743;-87
2022/10/17 07:16:29;;;;;;;;;9.00;5.50;;;;;19.31;69.06;101666.16;2373330;28;47479;-88
2022/10/17 07:17:39;;;;;;;;;7.00;7.00;;;;;19.31;69.20;101663.47;2376697;28;45414;-87
2022/10/17 07:18:50;;;;;;;;;7.25;6.00;;;;;19.35;69.16;101670.34;2384159;28;46598;-87
2022/10/17 07:20:00;;;;;;;;;7.00;7.00;;;;;19.33;69.35;101673.06;2389721;28;45366;-87
2022/10/17 07:21:11;;;;;;;;;8.50;8.50;;;;;19.37;69.17;101672.91;2389133;28;45337;-88
2022/10/17 07:22:21;;;;;;;;;10.50;7.25;;;;;19.38;69.12;101678.19;2375946;28;44676;-88
2022/10/17 07:23:35;;;;;;;;;9.00;7.75;;;;;19.40;69.02;101676.28;2379001;28;45333;-89
2022/10/17 07:24:45;;;;;;;;;8.50;8.00;;;;;19.43;69.02;101688.59;2374478;28;45298;-89
2022/10/17 07:26:07;;;;;;;;;8.25;6.50;;;;;19.44;68.87;101685.81;2374114;28;46321;-89
2022/10/17 07:27:17;;;;;;;;;11.00;7.25;;;;;19.45;69.63;101686.69;2378604;28;45343;-88
2022/10/17 07:28:28;;;;;;;;;9.75;8.75;;;;;19.49;69.43;101695.34;2384019;28;46294;-89
2022/10/17 07:29:38;;;;;;;;;8.25;7.00;;;;;19.47;69.02;101690.13;2384649;28;45251;-89
2022/10/17 07:30:48;;;;;;;;;7.50;7.00;;;;;19.50;69.40;101694.44;2386121;28;46312;-89
2022/10/17 07:31:58;;;;;;;;;9.00;8.00;;;;;19.53;69.05;101697.75;2386601;28;45254;-88
2022/10/17 07:33:09;;;;;;;;;6.75;6.75;;;;;19.55;68.87;101703.91;2389108;28;46345;-88
2022/10/17 07:34:20;;;;;;;;;9.50;9.00;;;;;19.55;68.69;101705.69;2384796;28;45239;-88
2022/10/17 07:35:30;;;;;;;;;7.75;7.75;;;;;19.56;68.63;101710.94;2383464;28;46186;-88
2022/10/17 07:36:40;;;;;;;;;9.25;7.50;;;;;19.56;68.54;101708.25;2386520;28;44568;-88
2022/10/17 07:37:51;;;;;;;;;9.25;8.00;;;;;19.58;68.61;101708.19;2386678;28;46537;-88
2022/10/17 07:39:01;;;;;;;;;8.25;8.25;;;;;19.61;68.93;101713.34;2377666;28;44860;-88
2022/10/17 07:40:12;;;;;;;;;7.50;6.25;;;;;19.62;68.45;101714.19;2386653;28;46495;-89
2022/10/17 07:41:22;;;;;;;;;9.50;7.00;;;;;19.64;68.37;101722.97;2391454;28;44644;-90
2022/10/17 07:42:35;;;;;;;;;6.50;6.50;;;;;19.61;68.37;101720.47;2393876;28;45359;-89
2022/10/17 07:43:45;;;;;;;;;11.00;9.00;;;;;19.64;68.03;101725.63;2378280;28;44723;-88
2022/10/17 07:44:56;;;;;;;;;7.50;7.00;;;;;19.66;68.12;101726.41;2367708;28;46839;-88
2022/10/17 07:46:07;;;;;;;;;7.00;5.25;;;;;19.66;68.76;101721.94;2376985;28;45258;-88
2022/10/17 07:47:17;;;;;;;;;11.00;7.50;;;;;19.69;68.52;101728.91;2383643;28;46234;-88
2022/10/17 07:48:27;;;;;;;;;6.50;6.50;;;;;19.74;68.40;101733.97;2380257;28;44781;-88
2022/10/17 07:49:42;;;;;;;;;9.00;7.50;;;;;19.77;67.98;101739.16;2386124;28;45363;-88
2022/10/17 07:50:53;;;;;;;;;9.25;7.75;;;;;19.80;68.03;101747.00;2383372;28;45485;-89
2022/10/17 07:52:03;;;;;;;;;7.00;7.00;;;;;19.84;67.95;101750.31;2374127;28;51253;-88
2022/10/17 07:53:14;;;;;;;;;10.50;9.50;;;;;19.87;67.88;101758.16;2384444;28;44775;-89
2022/10/17 07:54:24;;;;;;;;;7.00;7.00;;;;;19.89;68.23;101757.13;2384373;28;45480;-89
2022/10/17 07:55:39;;;;;;;;;7.75;6.75;;;;;19.92;68.14;101758.75;2384515;28;45315;-88
2022/10/17 07:56:49;;;;;;;;;6.00;6.00;;;;;19.96;67.58;101764.78;2374251;28;47239;-89
2022/10/17 07:58:00;;;;;;;;;10.00;8.50;;;;;19.96;67.98;101760.31;2367927;28;45176;-88
2022/10/17 07:59:10;;;;;;;;;8.25;6.25;;;;;19.98;67.42;101763.72;2377063;28;46365;-88
2022/10/17 08:00:20;;;;;;;;;8.50;8.00;;;;;19.99;67.31;101761.94;2374682;28;45251;-88
2022/10/17 08:01:30;;;;;;;;;7.50;7.00;;;;;20.00;67.39;101772.50;2376665;28;46281;-88
2022/10/17 08:02:41;;;;;;;;;10.75;8.25;;;;;20.00;67.33;101769.84;2383593;28;44742;-87
2022/10/17 08:03:51;;;;;;;;;6.75;6.75;;;;;20.00;67.56;101771.66;2383929;28;46355;-88
2022/10/17 08:05:02;;;;;;;;;5.25;4.75;;;;;20.01;67.61;101779.56;2374347;28;44632;-88
2022/10/17 08:06:12;;;;;;;;;6.75;6.50;;;;;20.02;67.72;101769.78;2373235;28;48473;-88
2022/10/17 08:07:22;;;;;;;;;6.50;6.00;;;;;20.00;67.34;101777.84;2373196;28;45153;-88
2022/10/17 08:08:33;;;;;;;;;7.75;7.00;;;;;20.00;67.54;101772.50;2383771;28;46708;-88
2022/10/17 08:09:43;;;;;;;;;8.75;8.75;;;;;20.01;67.38;101771.56;2384525;28;45401;-88
2022/10/17 08:10:59;;;;;;;;;8.00;7.75;;;;;20.00;66.70;101767.16;2384268;28;45531;-89
2022/10/17 08:12:10;;;;;;;;;7.50;7.50;;;;;19.99;67.65;101776.16;2384429;28;44760;-87
2022/10/17 08:13:21;;;;;;;;;6.00;6.00;;;;;19.98;66.82;101777.06;2374218;28;46546;-86
2022/10/17 08:14:32;;;;;;;;;8.00;7.00;;;;;19.95;67.44;101779.91;2383617;28;45289;-86
2022/10/17 08:15:42;;;;;;;;;8.25;7.00;;;;;19.95;67.75;101776.41;2384181;28;45331;-86
2022/10/17 08:16:53;;;;;;;;;5.75;5.75;;;;;19.95;68.14;101779.06;2383884;28;45239;-85
2022/10/17 08:18:04;;;;;;;;;8.75;7.75;;;;;19.94;68.29;101782.69;2384430;28;45485;-85
2022/10/17 08:19:14;;;;;;;;;8.25;7.50;;;;;19.93;67.18;101779.13;2374264;28;45373;-86
2022/10/17 08:20:25;;;;;;;;;6.50;6.25;;;;;19.92;67.65;101781.91;2377048;28;46314;-85
2022/10/17 08:21:35;;;;;;;;;8.50;6.25;;;;;19.94;68.31;101788.00;2384315;28;45443;-86
2022/10/17 08:22:54;;;;;;;;;6.50;6.50;;;;;19.96;68.31;101791.44;2374235;28;47867;-87
2022/10/17 08:24:04;;;;;;;;;5.00;5.00;;;;;19.94;67.11;101788.88;2376234;28;45374;-87
2022/10/17 08:25:14;;;;;;;;;7.00;6.00;;;;;19.96;67.63;101791.44;2376204;28;47631;-88
2022/10/17 08:26:25;;;;;;;;;5.25;5.25;;;;;19.95;67.86;101782.56;2374465;28;44871;-88
2022/10/17 08:27:35;;;;;;;;;7.00;7.00;;;;;19.99;67.50;101791.28;2372261;28;48146;-88
2022/10/17 08:28:46;;;;;;;;;8.50;7.00;;;;;20.01;68.03;101792.91;2368056;28;45447;-88
2022/10/17 08:29:57;;;;;;;;;8.25;6.00;;;;;20.02;67.83;101796.44;2367537;28;48272;-87
2022/10/17 08:31:10;;;;;;;;;7.50;6.75;;;;;20.07;67.06;101804.19;2377034;28;45542;-88
2022/10/17 08:32:24;;;;;;;;;4.25;4.25;;;;;20.07;67.14;101806.88;2373674;28;47341;-88
2022/10/17 08:33:35;;;;;;;;;6.50;5.75;;;;;20.09;67.25;101796.97;2377421;28;45493;-89
2022/10/17 08:34:45;;;;;;;;;7.00;7.00;;;;;20.10;67.11;101804.88;2386379;28;46089;-88
2022/10/17 08:35:57;;;;;;;;;7.75;7.75;;;;;20.11;66.91;101800.44;2393641;28;44707;-89
2022/10/17 08:37:08;;;;;;;;;8.50;8.50;;;;;20.13;67.32;101809.19;2383288;28;48482;-89
2022/10/17 08:38:18;;;;;;;;;8.50;8.00;;;;;20.16;67.60;101806.38;2386399;28;44685;-89
2022/10/17 08:39:28;;;;;;;;;6.50;6.50;;;;;20.17;66.99;101816.09;2393448;28;45290;-89
2022/10/17 08:40:41;;;;;;;;;6.00;6.00;;;;;20.18;66.91;101820.47;2373973;28;45248;-89
2022/10/17 08:42:02;;;;;;;;;6.75;5.25;;;;;20.18;67.51;101812.47;2376944;28;47622;-90
2022/10/17 08:43:30;;;;;;;;;5.25;5.25;;;;;20.18;66.89;101812.47;2378046;28;45274;-89
2022/10/17 08:45:13;;;;;;;;;7.75;7.00;;;;;20.19;67.54;101816.88;2386524;28;47179;-89
2022/10/17 08:46:30;;;;;;;;;4.25;4.25;;;;;20.21;66.80;101816.78;2359537;28;45515;-88
2022/10/17 08:47:44;;;;;;;;;5.00;5.00;;;;;20.23;67.06;101821.06;2383272;28;47171;-88
2022/10/17 08:48:58;;;;;;;;;6.00;6.00;;;;;20.24;67.09;101813.94;2381512;28;45464;-89
2022/10/17 08:50:20;;;;;;;;;9.00;6.00;;;;;20.26;66.18;101816.50;2384693;28;45584;-89
2022/10/17 08:51:35;;;;;;;;;10.75;6.75;;;;;20.30;66.28;101823.38;2388053;28;45165;-89
2022/10/17 08:52:54;;;;;;;;;6.50;6.25;;;;;20.30;66.65;101820.72;2373921;28;47301;-89
2022/10/17 08:54:17;;;;;;;;;8.50;6.00;;;;;20.33;66.65;101815.22;2374864;28;45365;-89
2022/10/17 08:55:34;;;;;;;;;6.50;6.25;;;;;20.38;66.65;101828.28;2386318;28;46568;-89
2022/10/17 08:56:49;;;;;;;;;9.00;8.50;;;;;20.41;66.58;101812.97;2381490;28;45280;-89
2022/10/17 08:58:00;;;;;;;;;9.00;7.50;;;;;20.43;67.28;101819.06;2370714;28;47217;-87
2022/10/17 08:59:22;;;;;;;;;9.25;8.50;;;;;20.48;67.94;101815.25;2382920;28;45497;-90
2022/10/17 09:00:32;;;;;;;;;11.50;8.00;;;;;20.51;66.83;101818.63;2392134;28;45259;-87
2022/10/17 09:01:49;;;;;;;;;7.75;6.25;;;;;20.54;67.58;101822.94;2383859;28;45146;-83
2022/10/17 09:03:28;;;;;;;;;8.00;7.25;;;;;20.54;66.99;101833.63;2384420;28;46579;-87
2022/10/17 09:05:06;;;;;;;;;8.00;6.00;;;;;20.56;66.90;101837.06;2384136;28;45303;-86
2022/10/17 09:06:28;;;;;;;;;6.75;6.75;;;;;20.56;66.71;101842.41;2383995;28;46538;-85
2022/10/17 09:07:51;;;;;;;;;11.50;7.50;;;;;20.55;67.33;101859.34;2384192;28;45192;-86
2022/10/17 09:09:22;;;;;;;;;8.25;6.75;;;;;20.53;67.46;101870.13;2373792;28;47490;-86
2022/10/17 09:10:35;;;;;;;;;9.75;7.50;;;;;20.53;67.38;101879.94;2379298;28;45263;-87
2022/10/17 09:11:48;;;;;;;;;5.50;5.00;;;;;20.52;67.23;101879.09;2391802;28;45530;-87
2022/10/17 09:13:13;;;;;;;;;7.25;7.00;;;;;20.53;66.59;101888.81;2393273;28;44656;-87
2022/10/17 09:14:48;;;;;;;;;9.00;8.75;;;;;20.52;66.12;101889.75;2393218;28;46294;-87
2022/10/17 09:16:10;;;;;;;;;7.25;7.00;;;;;20.52;65.93;101897.78;2379326;28;45618;-87
2022/10/17 09:17:51;;;;;;;;;6.25;6.25;;;;;20.51;65.69;101895.19;2372046;28;48207;-87
2022/10/17 09:19:24;;;;;;;;;7.25;6.00;;;;;20.48;65.98;101900.72;2383197;28;45285;-87
2022/10/17 09:21:08;;;;;;;;;10.50;9.00;;;;;20.42;66.60;101900.09;2376264;28;47141;-87
2022/10/17 09:22:22;;;;;;;;;6.25;6.00;;;;;20.43;66.76;101911.66;2375771;28;45493;-87
2022/10/17 09:23:46;;;;;;;;;6.75;6.50;;;;;20.41;66.11;101905.53;2376433;28;45310;-87
2022/10/17 09:25:05;;;;;;;;;7.25;7.00;;;;;20.40;66.57;101910.03;2378403;28;44730;-87
2022/10/17 09:26:16;;;;;;;;;6.00;6.00;;;;;20.39;66.02;101916.31;2384610;28;47191;-87
2022/10/17 09:28:10;;;;;;;;;7.75;6.75;;;;;20.34;66.79;101911.25;2378061;28;45188;-87
2022/10/17 09:29:23;;;;;;;;;4.25;4.25;;;;;20.34;67.14;101916.59;2347017;29;45581;-87
2022/10/17 09:30:36;;;;;;;;;6.50;6.50;;;;;20.34;67.17;101919.25;2338742;29;44657;-87
2022/10/17 09:31:56;;;;;;;;;10.50;10.50;;;;;20.33;67.33;101913.97;2340876;29;46334;-87
2022/10/17 09:33:12;;;;;;;;;7.25;5.25;;;;;20.33;67.61;101922.00;2347913;29;44849;-86
2022/10/17 09:34:27;;;;;;;;;7.00;6.50;;;;;20.31;67.62;101918.53;2351726;28;45885;-87
2022/10/17 09:35:40;;;;;;;;;7.50;6.00;;;;;20.31;66.86;101918.53;2381045;28;45419;-87
2022/10/17 09:36:51;;;;;;;;;10.50;8.50;;;;;20.31;68.00;101923.88;2375932;28;46471;-86
2022/10/17 09:38:01;;;;;;;;;8.75;7.00;;;;;20.30;66.79;101927.50;2376367;28;44640;-86
2022/10/17 09:39:16;;;;;;;;;9.50;8.00;;;;;20.29;67.20;101933.78;2375959;28;45198;-87
2022/10/17 09:40:31;;;;;;;;;7.00;6.00;;;;;20.29;67.43;101928.47;2376153;28;45213;-87
2022/10/17 09:42:17;;;;;;;;;8.50;6.25;;;;;20.27;66.97;101928.56;2376196;28;45473;-87
2022/10/17 09:43:28;;;;;;;;;7.50;6.50;;;;;20.24;66.89;101920.72;2365654;28;45332;-87
2022/10/17 09:44:49;;;;;;;;;8.00;8.00;;;;;20.24;66.23;101932.25;2378486;28;48132;-87
2022/10/17 09:46:21;;;;;;;;;6.00;6.00;;;;;20.23;66.29;101941.19;2380974;28;44632;-86
2022/10/17 09:47:44;;;;;;;;;7.00;7.00;;;;;20.20;67.20;101938.69;2378929;28;46553;-87
2022/10/17 09:49:00;;;;;;;;;10.00;6.25;;;;;20.19;66.96;101925.44;2383411;28;45326;-86
2022/10/17 09:50:20;;;;;;;;;10.25;8.25;;;;;20.19;67.71;101936.13;2382958;28;48330;-86
2022/10/17 09:51:31;;;;;;;;;7.75;6.75;;;;;20.19;67.17;101930.78;2376714;28;45319;-86
2022/10/17 09:52:47;;;;;;;;;9.50;7.00;;;;;20.17;66.55;101928.19;2368688;28;46091;-86
2022/10/17 09:54:11;;;;;;;;;11.00;10.00;;;;;20.14;67.98;101936.38;2381458;28;45378;-86
2022/10/17 09:55:32;;;;;;;;;6.25;6.25;;;;;20.16;67.37;101937.13;2375990;28;45764;-87
2022/10/17 09:56:56;;;;;;;;;9.00;8.00;;;;;20.16;68.79;101934.47;2377652;28;45269;-86
2022/10/17 09:58:08;;;;;;;;;7.75;6.25;;;;;20.17;66.88;101927.34;2381599;28;45385;-86
2022/10/17 09:59:31;;;;;;;;;10.75;8.00;;;;;20.19;68.40;101925.44;2381545;28;44680;-86
2022/10/17 10:00:44;;;;;;;;;9.00;9.00;;;;;20.19;69.51;101920.09;2375543;28;46806;-87
2022/10/17 10:02:07;;;;;;;;;7.00;7.00;;;;;20.22;68.07;101935.94;2378605;28;45201;-87
2022/10/17 10:03:19;;;;;;;;;10.25;6.25;;;;;20.23;68.14;101926.97;2383463;28;47049;-87
2022/10/17 10:04:30;;;;;;;;;8.00;8.00;;;;;20.22;68.68;101915.44;2378228;28;45196;-87
2022/10/17 10:05:41;;;;;;;;;6.75;5.25;;;;;20.24;68.73;101918.03;2386313;28;46638;-87
2022/10/17 10:07:03;;;;;;;;;7.25;6.75;;;;;20.24;69.65;101923.38;2376050;28;45222;-87
2022/10/17 10:08:16;;;;;;;;;6.50;6.50;;;;;20.26;68.41;101924.16;2375159;28;47342;-86
2022/10/17 10:09:30;;;;;;;;;10.75;9.00;;;;;20.26;68.62;101918.81;2375627;28;45315;-86
2022/10/17 10:10:42;;;;;;;;;6.50;6.50;;;;;20.27;68.74;101923.22;2380653;28;46387;-87
2022/10/17 10:11:56;;;;;;;;;10.25;8.00;;;;;20.28;69.46;101921.38;2378081;28;45175;-87
2022/10/17 10:13:13;;;;;;;;;9.00;7.50;;;;;20.29;67.76;101918.66;2384625;28;45376;-87
2022/10/17 10:14:35;;;;;;;;;8.50;7.50;;;;;20.30;69.47;101935.50;2381829;28;45434;-87
2022/10/17 10:15:48;;;;;;;;;6.75;6.75;;;;;20.29;68.93;101931.13;2369918;28;47119;-87
2022/10/17 10:17:00;;;;;;;;;14.50;12.75;;;;;20.30;69.89;101938.16;2368474;28;44570;-86
2022/10/17 10:18:33;;;;;;;;;7.25;7.25;;;;;20.32;68.41;101946.97;2372708;28;48333;-87
2022/10/17 10:19:49;;;;;;;;;8.75;7.75;;;;;20.32;68.64;101947.81;2379217;28;44703;-87
2022/10/17 10:21:13;;;;;;;;;8.75;7.50;;;;;20.34;67.87;101947.75;2384277;28;47611;-87
2022/10/17 10:22:24;;;;;;;;;7.50;7.00;;;;;20.34;67.50;101961.09;2384826;28;45410;-87
2022/10/17 10:23:38;;;;;;;;;7.75;6.00;;;;;20.35;67.29;101957.47;2384316;28;47106;-87
2022/10/17 10:25:21;;;;;;;;;8.50;8.50;;;;;20.37;68.03;101960.94;2377132;28;45188;-88
2022/10/17 10:26:45;;;;;;;;;9.50;9.00;;;;;20.39;67.60;101975.06;2337987;29;47844;-88
2022/10/17 10:27:55;;;;;;;;;7.50;7.00;;;;;20.37;67.52;101976.09;2380325;28;44843;-87
2022/10/17 10:29:31;;;;;;;;;10.00;9.00;;;;;20.38;67.86;101989.34;2379019;28;45418;-88
2022/10/17 10:30:47;;;;;;;;;10.50;9.50;;;;;20.38;67.93;101989.34;2375650;28;45253;-87
2022/10/17 10:32:06;;;;;;;;;8.25;7.00;;;;;20.36;68.02;101988.56;2384371;28;45411;-88
2022/10/17 10:33:19;;;;;;;;;11.25;8.75;;;;;20.37;68.66;101987.63;2375759;28;45461;-87
2022/10/17 10:34:31;;;;;;;;;14.25;14.25;;;;;20.38;69.76;101984.00;2368560;28;48135;-87
2022/10/17 10:35:41;;;;;;;;;10.50;9.00;;;;;20.40;69.06;101984.78;2368622;28;45251;-87
2022/10/17 10:37:01;;;;;;;;;7.25;7.25;;;;;20.41;69.81;101982.97;2375205;28;46453;-88
2022/10/17 10:38:16;;;;;;;;;9.75;9.75;;;;;20.43;69.91;101979.28;2385437;28;45199;-88
2022/10/17 10:39:50;;;;;;;;;16.25;14.50;;;;;20.46;70.00;101987.13;2381086;28;45393;-88
2022/10/17 10:41:01;;;;;;;;;10.75;9.50;;;;;20.48;69.37;101992.38;2375827;28;45210;-87
2022/10/17 10:42:25;;;;;;;;;10.75;9.75;;;;;20.49;68.30;101986.09;2374910;28;47615;-88
2022/10/17 10:43:47;;;;;;;;;8.00;8.00;;;;;20.51;68.50;101999.34;2370347;28;44688;-88
2022/10/17 10:45:20;;;;;;;;;7.25;7.25;;;;;20.52;69.61;102001.09;2375389;28;46520;-87
2022/10/17 10:46:30;;;;;;;;;14.75;8.25;;;;;20.50;68.61;102002.94;2375521;28;45216;-87
2022/10/17 10:47:57;;;;;;;;;11.00;8.00;;;;;20.50;68.81;102018.97;2377568;28;49894;-88
2022/10/17 10:49:28;;;;;;;;;9.75;7.75;;;;;20.49;68.54;102020.81;2382882;28;45308;-87
2022/10/17 10:50:43;;;;;;;;;8.00;6.75;;;;;20.50;67.94;102019.84;2375595;28;46529;-87
2022/10/17 10:51:58;;;;;;;;;6.50;4.75;;;;;20.46;68.94;102013.81;2375838;28;44723;-87
2022/10/17 10:53:30;;;;;;;;;8.50;7.00;;;;;20.46;67.46;102012.94;2374750;28;47141;-87
2022/10/17 10:54:52;;;;;;;;;9.75;8.00;;;;;20.42;67.82;102016.75;2374678;28;45258;-88
2022/10/17 10:56:32;;;;;;;;;11.75;10.50;;;;;20.42;69.38;102030.09;2383406;28;47499;-88
2022/10/17 10:57:45;;;;;;;;;9.50;8.25;;;;;20.38;67.79;102036.53;2384164;28;45264;-88
2022/10/17 10:59:07;;;;;;;;;11.50;8.75;;;;;20.33;67.91;102034.97;2381172;28;46615;-88
2022/10/17 11:00:25;;;;;;;;;12.75;9.25;;;;;20.31;68.33;102025.34;2375689;28;44787;-87
2022/10/17 11:01:48;;;;;;;;;4.25;4.25;;;;;20.29;68.24;102021.88;2374399;28;46716;-87
2022/10/17 11:03:18;;;;;;;;;9.50;8.75;;;;;20.32;70.14;102013.72;2374968;28;45261;-87